Time;durP1;ratioP1;P1;durP2;ratioP2;P2;SDS_P1;SDS_P2;PMS_P1;PMS_P2;Temp;Humidity;BMP_temperature;BMP_pressure;BME280_temperature;BME280_humidity;BME280_pressure;Samples;Min_cycle;Max_cycle;Signal;HPM_P1;HPM_P2
2023/05/18 03:02:21;;;;;;;13.10;12.00;;;3.30;99.90;;;;;;5090745;23;20250;-76
2023/05/18 03:04:52;;;;;;;21.13;19.57;;;3.20;99.90;;;;;;4972118;28;20667;-77
2023/05/18 03:07:22;;;;;;;23.53;21.57;;;3.30;99.90;;;;;;4971702;28;20276;-77
2023/05/18 03:09:48;;;;;;;15.87;14.43;;;3.30;99.90;;;;;;4954459;28;20204;-78
2023/05/18 03:12:14;;;;;;;11.97;11.00;;;3.20;99.90;;;;;;4955858;28;20201;-77
2023/05/18 03:14:40;;;;;;;21.43;19.60;;;3.10;99.90;;;;;;4954981;29;20189;-78
2023/05/18 03:17:05;;;;;;;17.47;16.17;;;3.10;99.90;;;;;;4955826;29;20280;-76
2023/05/18 03:19:33;;;;;;;19.80;18.23;;;3.10;99.90;;;;;;4939813;29;20185;-79
2023/05/18 03:22:00;;;;;;;17.60;16.30;;;3.10;99.90;;;;;;4956233;28;20216;-78
2023/05/18 03:24:28;;;;;;;16.67;15.07;;;3.10;99.90;;;;;;4958267;29;20182;-77
2023/05/18 03:26:55;;;;;;;18.63;17.20;;;3.20;99.90;;;;;;4952830;29;20194;-77
2023/05/18 03:29:22;;;;;;;25.37;23.37;;;3.10;99.90;;;;;;4935800;29;20591;-78
2023/05/18 03:31:48;;;;;;;17.40;15.70;;;3.10;99.90;;;;;;4953087;28;20731;-77
2023/05/18 03:34:13;;;;;;;22.17;20.13;;;3.00;99.90;;;;;;4939316;29;20185;-77
2023/05/18 03:36:41;;;;;;;19.97;18.37;;;3.00;99.90;;;;;;4925635;28;20241;-77
2023/05/18 03:39:07;;;;;;;21.10;19.20;;;3.10;99.90;;;;;;4933892;29;20185;-77
2023/05/18 03:41:33;;;;;;;20.97;19.27;;;3.10;99.90;;;;;;4953330;28;20209;-78
2023/05/18 03:43:59;;;;;;;22.77;20.93;;;3.10;99.90;;;;;;4938038;29;20213;-77
2023/05/18 03:46:25;;;;;;;23.70;21.90;;;3.00;99.90;;;;;;4940240;29;20209;-78
2023/05/18 03:48:53;;;;;;;23.37;21.67;;;3.00;99.90;;;;;;4956973;29;20307;-78
2023/05/18 03:51:19;;;;;;;22.63;20.77;;;3.00;99.90;;;;;;4938912;29;20662;-77
2023/05/18 03:53:45;;;;;;;25.07;22.97;;;3.00;99.90;;;;;;4965255;28;20181;-78
2023/05/18 03:56:12;;;;;;;21.53;19.83;;;3.00;99.90;;;;;;4958798;28;20184;-77
2023/05/18 03:58:38;;;;;;;20.47;19.07;;;3.00;99.90;;;;;;4975585;28;20173;-77
2023/05/18 04:01:04;;;;;;;25.03;22.97;;;3.00;99.90;;;;;;4942075;29;20729;-72
2023/05/18 04:03:30;;;;;;;21.37;19.53;;;3.10;99.90;;;;;;4938299;29;20189;-71
2023/05/18 04:05:55;;;;;;;22.07;20.43;;;3.10;99.90;;;;;;4948291;29;20269;-71
2023/05/18 04:08:24;;;;;;;21.63;19.77;;;3.20;99.90;;;;;;4927920;29;20213;-71
2023/05/18 04:10:50;;;;;;;22.83;20.73;;;3.20;99.90;;;;;;4954722;28;20213;-71
2023/05/18 04:13:16;;;;;;;24.50;22.47;;;3.20;99.90;;;;;;4954989;29;20178;-71
2023/05/18 04:15:42;;;;;;;15.97;14.20;;;3.20;99.90;;;;;;4938081;29;20186;-70
2023/05/18 04:18:09;;;;;;;14.07;12.70;;;3.20;99.90;;;;;;4954812;29;20666;-70
2023/05/18 04:20:36;;;;;;;13.77;12.40;;;3.20;99.90;;;;;;4937679;29;20213;-71
2023/05/18 04:23:04;;;;;;;15.70;14.30;;;3.30;99.90;;;;;;4955353;29;20178;-71
2023/05/18 04:25:30;;;;;;;14.57;13.27;;;3.40;99.90;;;;;;4955066;29;20561;-71
2023/05/18 04:27:56;;;;;;;15.00;13.60;;;3.40;99.90;;;;;;4945185;29;20177;-72
2023/05/18 04:30:22;;;;;;;14.50;13.17;;;3.40;99.90;;;;;;4965477;28;20689;-71
2023/05/18 04:32:49;;;;;;;17.47;15.30;;;3.60;99.90;;;;;;4948718;29;20186;-71
2023/05/18 04:35:15;;;;;;;16.30;15.03;;;3.60;99.90;;;;;;4937193;29;20189;-70
2023/05/18 04:37:41;;;;;;;14.50;12.27;;;3.60;99.90;;;;;;4936501;29;20236;-71
2023/05/18 04:40:15;;;;;;;11.30;8.93;;;3.70;99.90;;;;;;4954599;29;20208;-70
2023/05/18 04:42:46;;;;;;;11.57;9.87;;;3.90;99.90;;;;;;4937709;29;20185;-71
2023/05/18 04:45:20;;;;;;;9.83;8.93;;;4.00;99.90;;;;;;4937502;29;20209;-72
2023/05/18 04:47:52;;;;;;;10.60;9.60;;;4.20;99.90;;;;;;4918425;29;20220;-73
2023/05/18 04:50:18;;;;;;;11.20;9.00;;;4.30;99.90;;;;;;4942791;28;20587;-71
2023/05/18 04:52:47;;;;;;;11.47;9.73;;;4.50;99.90;;;;;;4937464;29;20182;-73
2023/05/18 04:55:27;;;;;;;12.83;11.60;;;4.60;99.90;;;;;;4936915;29;20188;-71
2023/05/18 04:57:56;;;;;;;16.10;10.53;;;4.80;99.90;;;;;;4954241;29;20750;-71
2023/05/18 05:00:23;;;;;;;15.17;13.60;;;5.00;99.90;;;;;;4953942;28;20209;-71
2023/05/18 05:02:50;;;;;;;10.53;9.53;;;5.20;99.90;;;;;;4937379;29;20194;-70
2023/05/18 05:05:16;;;;;;;14.10;12.70;;;5.50;99.90;;;;;;4954385;29;20630;-74
2023/05/18 05:07:42;;;;;;;13.07;11.90;;;5.90;99.90;;;;;;4945085;29;20277;-70
2023/05/18 05:10:08;;;;;;;12.40;11.10;;;6.40;99.90;;;;;;4947948;29;20304;-69
2023/05/18 05:12:36;;;;;;;12.70;10.47;;;6.80;99.90;;;;;;4954633;29;20190;-69
2023/05/18 05:15:02;;;;;;;17.30;15.63;;;7.40;99.90;;;;;;4954313;29;20189;-70
2023/05/18 05:17:27;;;;;;;39.87;37.57;;;7.90;99.90;;;;;;4937063;29;20186;-70
2023/05/18 05:19:53;;;;;;;15.80;13.40;;;8.30;99.90;;;;;;4953895;29;20186;-70
2023/05/18 05:22:19;;;;;;;26.70;25.00;;;8.80;99.90;;;;;;4936967;29;20572;-71
2023/05/18 05:24:45;;;;;;;19.13;17.70;;;9.30;99.90;;;;;;4954071;29;20199;-69
2023/05/18 05:27:11;;;;;;;15.63;14.53;;;9.60;99.90;;;;;;4936708;29;20648;-71
2023/05/18 05:29:36;;;;;;;14.83;13.73;;;9.90;99.90;;;;;;4953689;29;20644;-69
2023/05/18 05:32:02;;;;;;;9.73;8.97;;;10.30;99.90;;;;;;4934165;29;20697;-69
2023/05/18 05:34:28;;;;;;;13.77;11.27;;;10.60;99.90;;;;;;4941569;29;20186;-70
2023/05/18 05:36:53;;;;;;;13.53;12.33;;;11.00;99.90;;;;;;4953602;29;20232;-70
2023/05/18 05:39:19;;;;;;;22.13;20.53;;;11.30;99.90;;;;;;4936598;29;20182;-70
2023/05/18 05:41:45;;;;;;;31.30;29.43;;;11.40;99.90;;;;;;4943651;28;20206;-70
2023/05/18 05:44:11;;;;;;;22.53;21.07;;;11.80;99.90;;;;;;4945407;28;20185;-73
2023/05/18 05:46:36;;;;;;;11.87;10.87;;;12.10;99.90;;;;;;4953333;28;20586;-70
2023/05/18 05:49:02;;;;;;;8.83;8.03;;;12.50;99.90;;;;;;4952615;28;20186;-70
2023/05/18 05:51:28;;;;;;;8.00;6.47;;;12.80;99.90;;;;;;4952907;28;20213;-70
2023/05/18 05:53:54;;;;;;;8.03;7.27;;;12.90;99.90;;;;;;4953505;29;20637;-71
2023/05/18 05:56:20;;;;;;;9.17;7.20;;;13.10;99.90;;;;;;4936019;29;20186;-71
2023/05/18 05:58:45;;;;;;;9.13;8.27;;;13.40;99.90;;;;;;4953065;29;20185;-70
2023/05/18 06:01:11;;;;;;;8.80;8.10;;;13.70;99.90;;;;;;4957092;28;20264;-70
2023/05/18 06:03:37;;;;;;;11.13;10.13;;;13.90;99.90;;;;;;4936310;29;20549;-70
2023/05/18 06:06:03;;;;;;;13.10;11.80;;;13.90;99.90;;;;;;4953189;28;20193;-70
2023/05/18 06:08:29;;;;;;;13.37;12.30;;;13.90;99.90;;;;;;4952615;29;20182;-70
2023/05/18 06:10:55;;;;;;;10.53;9.63;;;14.00;99.90;;;;;;4952502;28;20217;-70
2023/05/18 06:13:21;;;;;;;8.80;8.00;;;14.40;99.90;;;;;;4953193;29;20236;-70
2023/05/18 06:15:47;;;;;;;7.17;6.47;;;14.40;99.90;;;;;;4953063;29;20557;-70
2023/05/18 06:18:13;;;;;;;9.50;7.60;;;14.60;99.90;;;;;;4934051;29;20693;-71
2023/05/18 06:20:39;;;;;;;8.53;6.80;;;14.80;99.90;;;;;;4961845;28;20206;-69
2023/05/18 06:23:05;;;;;;;7.33;6.03;;;14.30;99.90;;;;;;4952785;29;20186;-69
2023/05/18 06:25:31;;;;;;;9.40;6.67;;;14.40;99.90;;;;;;4952453;29;20685;-71
2023/05/18 06:27:57;;;;;;;8.30;7.70;;;14.80;99.90;;;;;;4935652;29;20220;-71
2023/05/18 06:30:23;;;;;;;7.37;6.77;;;15.00;99.90;;;;;;4951859;28;20686;-70
2023/05/18 06:32:48;;;;;;;13.00;11.13;;;14.90;99.90;;;;;;4952404;29;20264;-70
2023/05/18 06:35:14;;;;;;;8.93;8.23;;;15.50;99.90;;;;;;4935538;29;20197;-71
2023/05/18 06:37:40;;;;;;;15.23;9.10;;;15.70;99.90;;;;;;4969479;28;20191;-70
2023/05/18 06:40:07;;;;;;;10.93;9.87;;;16.20;99.90;;;;;;4946466;28;20202;-70
2023/05/18 06:42:33;;;;;;;10.60;9.43;;;16.30;99.90;;;;;;4952720;29;20218;-70
2023/05/18 06:44:59;;;;;;;12.53;11.70;;;16.40;99.90;;;;;;4952354;29;20651;-70
2023/05/18 06:47:25;;;;;;;10.13;8.67;;;16.30;99.90;;;;;;4952958;29;20193;-75
2023/05/18 06:49:50;;;;;;;12.63;11.40;;;16.30;99.90;;;;;;4953660;29;20245;-71
2023/05/18 06:52:16;;;;;;;12.70;11.37;;;16.00;99.90;;;;;;4951910;28;20210;-70
2023/05/18 06:54:42;;;;;;;12.33;11.33;;;16.30;99.90;;;;;;4952752;29;20181;-70
2023/05/18 06:57:08;;;;;;;9.30;8.37;;;16.50;99.90;;;;;;4952414;29;20208;-70
2023/05/18 06:59:33;;;;;;;9.20;7.47;;;16.70;99.90;;;;;;4952802;29;20681;-70
2023/05/18 07:01:59;;;;;;;9.13;5.37;;;17.00;99.90;;;;;;4952432;28;20224;-71
2023/05/18 07:07:00;;;;;;;6.90;6.07;;;17.60;97.60;;;;;;5319088;23;20263;-69
2023/05/18 07:09:26;;;;;;;10.50;5.63;;;17.60;97.10;;;;;;4990967;28;20183;-72
2023/05/18 07:11:52;;;;;;;7.90;5.00;;;18.00;96.30;;;;;;4972788;28;20251;-72
2023/05/18 07:14:18;;;;;;;7.03;5.40;;;18.10;95.20;;;;;;4973457;28;20844;-72
2023/05/18 07:16:46;;;;;;;6.77;5.87;;;18.10;95.70;;;;;;4998602;28;20186;-71
2023/05/18 07:19:12;;;;;;;8.87;6.23;;;18.00;95.50;;;;;;4993662;28;20621;-70
2023/05/18 07:21:38;;;;;;;10.63;5.80;;;18.30;94.80;;;;;;4998506;28;20614;-69
2023/05/18 07:24:04;;;;;;;6.20;5.43;;;17.60;94.00;;;;;;4994526;28;20246;-70
2023/05/18 07:26:31;;;;;;;8.20;5.17;;;16.70;95.10;;;;;;4976736;28;20176;-70
2023/05/18 07:28:57;;;;;;;5.70;5.17;;;16.10;96.90;;;;;;4993883;28;20181;-71
2023/05/18 07:31:23;;;;;;;6.53;5.10;;;16.30;96.40;;;;;;4994692;28;20222;-71
2023/05/18 07:33:48;;;;;;;11.03;8.67;;;16.00;95.60;;;;;;4994769;28;20180;-70
2023/05/18 07:36:15;;;;;;;9.70;8.37;;;15.80;96.60;;;;;;5002352;28;20189;-70
2023/05/18 07:38:40;;;;;;;9.20;8.10;;;15.70;96.60;;;;;;5003629;28;20188;-72
2023/05/18 07:41:06;;;;;;;11.07;10.03;;;15.90;96.40;;;;;;4995691;28;20214;-70
2023/05/18 07:43:32;;;;;;;14.73;8.63;;;16.00;96.60;;;;;;5013705;28;20191;-71
2023/05/18 07:45:58;;;;;;;8.13;7.40;;;16.30;96.20;;;;;;5012460;28;20298;-71
2023/05/18 07:48:23;;;;;;;9.20;8.43;;;16.00;95.90;;;;;;4995703;28;20263;-71
2023/05/18 07:50:49;;;;;;;11.53;9.07;;;15.80;96.50;;;;;;5009041;28;20220;-71
2023/05/18 07:53:15;;;;;;;8.10;7.37;;;16.10;96.40;;;;;;4994258;28;20211;-70
2023/05/18 07:55:41;;;;;;;9.37;6.00;;;16.30;95.70;;;;;;4976989;28;20177;-71
2023/05/18 07:58:06;;;;;;;6.53;5.93;;;16.50;95.50;;;;;;4985597;28;20225;-70
2023/05/18 08:00:33;;;;;;;6.30;5.80;;;16.20;94.70;;;;;;5013895;28;20227;-71
2023/05/18 08:02:59;;;;;;;4.77;4.23;;;16.40;95.40;;;;;;5014251;28;20187;-71
2023/05/18 08:05:25;;;;;;;11.47;6.37;;;16.70;94.60;;;;;;5013972;28;20282;-70
2023/05/18 08:07:51;;;;;;;8.80;5.10;;;16.30;95.60;;;;;;5006885;28;20242;-70
2023/05/18 08:10:17;;;;;;;10.73;5.77;;;16.30;94.70;;;;;;4994400;28;20208;-71
2023/05/18 08:12:43;;;;;;;11.33;4.80;;;16.50;95.60;;;;;;4977108;28;20190;-70
2023/05/18 08:15:10;;;;;;;6.33;5.17;;;16.90;94.00;;;;;;4994312;28;20272;-70
2023/05/18 08:17:35;;;;;;;8.40;5.27;;;16.70;93.60;;;;;;4980719;28;20175;-70
2023/05/18 08:20:03;;;;;;;6.77;4.77;;;16.60;94.30;;;;;;5013797;28;20250;-70
2023/05/18 08:22:29;;;;;;;7.00;5.07;;;16.70;93.80;;;;;;5013797;28;20215;-70
2023/05/18 08:24:56;;;;;;;8.97;5.40;;;16.90;94.20;;;;;;4996257;28;20183;-71
2023/05/18 08:27:22;;;;;;;7.53;5.30;;;17.10;94.00;;;;;;4993927;28;20179;-70
2023/05/18 08:29:48;;;;;;;5.30;4.80;;;17.40;93.50;;;;;;4993131;28;20212;-70
2023/05/18 08:32:14;;;;;;;9.47;5.00;;;17.50;92.90;;;;;;4994111;28;20200;-71
2023/05/18 08:34:40;;;;;;;9.10;4.50;;;17.70;92.30;;;;;;4993900;28;20177;-70
2023/05/18 08:37:06;;;;;;;6.07;4.37;;;17.80;92.10;;;;;;4993871;28;20191;-71
2023/05/18 08:39:32;;;;;;;7.90;4.90;;;17.60;91.80;;;;;;5012372;28;20179;-70
2023/05/18 08:42:20;;;;;;;5.23;4.63;;;17.40;92.20;;;;;;5013595;28;20721;-71
2023/05/18 08:44:57;;;;;;;11.43;5.23;;;17.80;92.40;;;;;;5013292;28;20610;-70
2023/05/18 08:47:25;;;;;;;6.67;4.90;;;18.20;91.60;;;;;;5011533;28;20187;-71
2023/05/18 08:49:54;;;;;;;7.77;5.93;;;18.00;91.70;;;;;;4993669;28;20220;-71
2023/05/18 08:52:26;;;;;;;9.93;5.70;;;17.90;90.80;;;;;;4993830;28;20246;-71
2023/05/18 08:54:53;;;;;;;5.73;4.63;;;17.90;91.90;;;;;;4993761;28;20177;-71
2023/05/18 08:57:21;;;;;;;11.13;5.70;;;18.00;90.60;;;;;;4993765;28;20636;-71
2023/05/18 08:59:48;;;;;;;7.77;5.93;;;18.10;91.30;;;;;;4995588;28;20183;-70
2023/05/18 09:02:14;;;;;;;12.53;5.83;;;18.00;88.20;;;;;;5013049;28;20211;-70
2023/05/18 09:04:41;;;;;;;7.87;5.43;;;17.90;89.20;;;;;;4996002;28;20191;-70
2023/05/18 09:07:09;;;;;;;7.10;5.17;;;17.90;87.40;;;;;;5013275;28;20659;-71
2023/05/18 09:09:35;;;;;;;6.77;5.70;;;17.70;87.20;;;;;;4993781;28;20216;-71
2023/05/18 09:12:01;;;;;;;7.33;5.77;;;17.90;88.50;;;;;;4975838;28;20570;-71
2023/05/18 09:14:28;;;;;;;10.50;5.53;;;18.20;85.10;;;;;;4993867;28;20195;-71
2023/05/18 09:16:54;;;;;;;7.37;5.87;;;18.40;87.10;;;;;;5012455;28;20180;-70
2023/05/18 09:19:20;;;;;;;7.17;5.47;;;18.40;84.40;;;;;;5012545;28;20184;-71
2023/05/18 09:21:46;;;;;;;6.87;5.63;;;18.10;88.30;;;;;;5012739;28;20196;-70
2023/05/18 09:24:12;;;;;;;12.47;6.10;;;18.20;87.30;;;;;;5012866;28;20179;-70
2023/05/18 09:26:38;;;;;;;6.30;4.50;;;18.70;84.60;;;;;;4994292;28;20177;-70
2023/05/18 09:29:20;;;;;;;9.83;5.33;;;18.50;81.60;;;;;;4992964;28;20675;-71
2023/05/18 09:31:47;;;;;;;9.33;5.80;;;18.60;84.10;;;;;;4993153;28;20215;-71
2023/05/18 09:34:18;;;;;;;6.47;4.60;;;18.60;82.60;;;;;;4975538;28;20173;-73
2023/05/18 09:36:52;;;;;;;6.63;5.07;;;18.50;84.30;;;;;;5011674;28;20215;-71
2023/05/18 09:39:18;;;;;;;4.63;4.30;;;18.00;85.50;;;;;;5012590;28;20171;-71
2023/05/18 09:41:44;;;;;;;5.43;4.80;;;17.90;83.80;;;;;;5012603;28;20607;-71
2023/05/18 09:44:11;;;;;;;12.60;5.60;;;17.40;86.40;;;;;;5012572;28;20182;-71
2023/05/18 09:46:40;;;;;;;10.30;5.93;;;17.40;86.90;;;;;;4977007;28;20316;-69
2023/05/18 09:49:08;;;;;;;5.67;5.27;;;17.60;87.40;;;;;;4992318;28;20220;-70
2023/05/18 09:51:37;;;;;;;6.03;4.30;;;18.10;86.20;;;;;;4992341;28;20212;-70
2023/05/18 09:54:06;;;;;;;6.13;4.90;;;17.80;84.30;;;;;;4992490;28;20585;-71
2023/05/18 09:56:35;;;;;;;7.03;6.07;;;17.90;84.10;;;;;;5008683;28;20214;-70
2023/05/18 09:59:08;;;;;;;8.57;5.67;;;18.30;83.70;;;;;;4994300;28;20184;-71
2023/05/18 10:01:34;;;;;;;9.70;8.93;;;18.80;82.40;;;;;;5012108;28;20262;-71
2023/05/18 10:04:04;;;;;;;14.63;13.17;;;19.10;81.20;;;;;;4994560;28;20187;-70
2023/05/18 10:06:30;;;;;;;21.43;20.17;;;19.50;80.60;;;;;;5011277;28;20257;-71
2023/05/18 10:08:59;;;;;;;34.87;32.70;;;20.20;78.90;;;;;;5011315;28;20579;-71
2023/05/18 10:11:30;;;;;;;31.00;28.83;;;20.50;76.20;;;;;;4994167;28;20219;-70
2023/05/18 10:13:57;;;;;;;31.80;29.27;;;19.90;76.40;;;;;;5011718;28;20187;-71
2023/05/18 10:16:24;;;;;;;32.83;30.63;;;19.80;77.30;;;;;;4981366;28;20184;-71
2023/05/18 10:18:53;;;;;;;34.70;32.83;;;19.90;75.80;;;;;;4979617;28;20204;-72
2023/05/18 10:21:20;;;;;;;33.63;31.67;;;20.20;75.30;;;;;;4997958;28;20190;-71
2023/05/18 10:23:49;;;;;;;23.70;21.63;;;19.20;77.00;;;;;;5030912;28;20230;-73
2023/05/18 10:26:18;;;;;;;31.90;29.80;;;19.20;77.20;;;;;;5015489;28;20182;-71
2023/05/18 10:28:47;;;;;;;26.60;25.02;;;19.90;75.10;;;;;;5011218;28;20276;-71
2023/05/18 10:31:15;;;;;;;20.08;18.83;;;20.60;72.30;;;;;;4981426;28;20683;-72
2023/05/18 10:33:43;;;;;;;12.20;10.97;;;20.50;72.20;;;;;;5001330;28;20179;-70
2023/05/18 10:36:10;;;;;;;12.70;7.57;;;20.80;71.30;;;;;;4999446;28;20662;-71
2023/05/18 10:38:38;;;;;;;9.73;8.85;;;20.60;70.50;;;;;;5010402;28;20652;-71
2023/05/18 10:41:05;;;;;;;8.38;7.45;;;20.90;71.80;;;;;;4993444;28;20226;-72
2023/05/18 10:43:32;;;;;;;7.53;5.75;;;21.10;71.50;;;;;;5000660;28;20192;-75
2023/05/18 10:45:59;;;;;;;7.10;5.63;;;21.10;70.50;;;;;;4992683;28;20271;-76
2023/05/18 10:48:27;;;;;;;6.40;5.80;;;21.20;69.10;;;;;;4991010;28;20664;-74
2023/05/18 10:50:55;;;;;;;5.13;4.65;;;21.30;69.80;;;;;;4995608;28;20294;-76
2023/05/18 10:53:25;;;;;;;6.90;5.10;;;21.60;68.00;;;;;;5006203;28;20204;-74
2023/05/18 10:55:52;;;;;;;8.75;5.38;;;21.70;70.00;;;;;;4996650;28;20276;-74
2023/05/18 10:58:21;;;;;;;6.28;4.90;;;22.20;68.20;;;;;;4973676;28;20366;-73
2023/05/18 11:00:50;;;;;;;9.18;4.80;;;22.50;65.80;;;;;;5020429;28;20732;-74
2023/05/18 11:03:18;;;;;;;7.60;4.78;;;22.50;65.00;;;;;;5030637;28;20179;-74
2023/05/18 11:05:50;;;;;;;3.90;3.40;;;21.90;62.40;;;;;;4976840;28;20188;-74
2023/05/18 11:08:26;;;;;;;5.35;4.85;;;21.40;63.00;;;;;;4993291;28;20190;-74
2023/05/18 11:11:06;;;;;;;5.30;4.80;;;20.70;65.30;;;;;;4992198;28;20227;-74
2023/05/18 11:13:34;;;;;;;6.05;5.25;;;20.80;66.30;;;;;;5030202;28;20198;-69
2023/05/18 11:16:06;;;;;;;9.52;4.90;;;21.10;65.50;;;;;;5019137;28;20255;-70
2023/05/18 11:18:49;;;;;;;6.90;4.30;;;21.70;65.00;;;;;;4988289;28;20675;-68
2023/05/18 11:21:24;;;;;;;7.30;5.15;;;21.70;64.40;;;;;;5012612;28;20213;-68
2023/05/18 11:24:15;;;;;;;4.68;4.38;;;21.80;63.60;;;;;;5011193;28;20266;-68
2023/05/18 11:26:51;;;;;;;6.25;4.15;;;22.10;64.20;;;;;;4973944;28;20196;-69
2023/05/18 11:29:22;;;;;;;4.93;4.53;;;22.20;62.30;;;;;;4981875;28;20191;-68
2023/05/18 11:31:53;;;;;;;6.10;4.65;;;22.30;62.60;;;;;;5010713;28;20838;-71
2023/05/18 11:34:56;;;;;;;6.53;5.88;;;21.60;63.70;;;;;;5010121;28;20234;-71
2023/05/18 11:37:37;;;;;;;6.35;4.85;;;21.40;65.40;;;;;;5010706;28;20183;-71
2023/05/18 11:40:07;;;;;;;9.82;5.28;;;22.10;63.40;;;;;;4977128;28;20661;-71
2023/05/18 11:42:34;;;;;;;7.22;5.00;;;22.30;62.60;;;;;;4973950;28;20255;-71
2023/05/18 11:45:09;;;;;;;6.80;4.47;;;23.40;63.20;;;;;;4991353;28;20187;-70
2023/05/18 11:47:36;;;;;;;6.05;3.83;;;23.60;58.70;;;;;;4990920;28;20192;-71
2023/05/18 11:50:06;;;;;;;9.07;4.97;;;23.30;60.70;;;;;;4988847;28;20196;-71
2023/05/18 11:52:32;;;;;;;8.93;4.57;;;22.50;62.40;;;;;;5010851;28;20283;-71
2023/05/18 11:54:59;;;;;;;5.40;4.32;;;22.90;61.60;;;;;;5010782;28;20275;-71
2023/05/18 11:57:34;;;;;;;7.22;5.03;;;22.90;58.40;;;;;;5010679;28;20179;-71
2023/05/18 12:00:06;;;;;;;4.82;4.13;;;22.80;61.60;;;;;;4978353;28;20279;-70
2023/05/18 12:02:33;;;;;;;7.07;4.88;;;22.80;59.30;;;;;;4991199;28;20617;-71
2023/05/18 12:05:01;;;;;;;9.02;4.57;;;22.10;60.30;;;;;;4991561;28;20737;-70
2023/05/18 12:07:34;;;;;;;5.38;4.85;;;22.60;61.80;;;;;;4994371;28;20192;-71
2023/05/18 12:10:13;;;;;;;4.60;4.00;;;23.60;59.40;;;;;;5009054;28;20588;-71
2023/05/18 12:12:40;;;;;;;6.32;4.03;;;24.70;58.30;;;;;;5014312;28;20184;-70
2023/05/18 12:15:08;;;;;;;5.45;4.18;;;24.20;58.10;;;;;;5014070;28;20532;-71
2023/05/18 12:17:47;;;;;;;6.47;5.47;;;24.50;59.30;;;;;;5013872;28;20215;-73
2023/05/18 12:20:15;;;;;;;11.55;10.73;;;25.20;57.50;;;;;;4997786;28;20239;-70
2023/05/18 12:22:50;;;;;;;12.80;11.82;;;25.80;53.40;;;;;;4977197;28;20271;-70
2023/05/18 12:25:17;;;;;;;9.93;9.10;;;26.20;53.30;;;;;;4977014;28;20183;-70
2023/05/18 12:27:44;;;;;;;10.80;9.90;;;25.20;53.20;;;;;;4993980;28;20184;-72
2023/05/18 12:30:12;;;;;;;8.93;8.23;;;25.00;54.20;;;;;;5009219;28;20561;-71
2023/05/18 12:32:42;;;;;;;7.40;6.93;;;25.10;55.80;;;;;;5013880;28;20230;-70
2023/05/18 12:35:08;;;;;;;8.68;6.22;;;24.50;54.80;;;;;;4997374;28;20184;-71
2023/05/18 12:37:42;;;;;;;8.13;5.82;;;23.40;55.60;;;;;;4996478;28;20176;-71
2023/05/18 12:40:08;;;;;;;7.13;4.45;;;23.00;56.90;;;;;;4981511;28;20215;-70
2023/05/18 12:42:34;;;;;;;5.72;5.15;;;22.90;56.40;;;;;;4976752;28;20181;-71
2023/05/18 12:45:00;;;;;;;7.32;6.03;;;23.60;55.80;;;;;;4994121;28;20188;-71
2023/05/18 12:47:31;;;;;;;6.28;5.63;;;24.40;54.70;;;;;;4993932;28;20258;-70
2023/05/18 12:50:01;;;;;;;6.50;5.65;;;23.80;55.10;;;;;;5007206;28;20703;-70
2023/05/18 12:52:27;;;;;;;9.05;6.22;;;23.40;54.70;;;;;;4995875;28;20195;-70
2023/05/18 12:54:59;;;;;;;5.60;5.25;;;24.20;54.10;;;;;;5013368;28;20636;-71
2023/05/18 12:57:26;;;;;;;10.68;4.85;;;23.50;54.60;;;;;;5013038;28;20663;-70
2023/05/18 12:59:56;;;;;;;7.57;5.25;;;23.10;56.00;;;;;;5000769;28;20184;-70
2023/05/18 13:02:32;;;;;;;8.02;5.50;;;23.40;54.70;;;;;;4976422;28;20787;-71
2023/05/18 13:05:10;;;;;;;9.05;5.38;;;23.60;54.30;;;;;;4994058;28;20191;-71
2023/05/18 13:07:41;;;;;;;7.22;6.53;;;24.10;55.20;;;;;;4976125;28;20204;-71
2023/05/18 13:10:12;;;;;;;8.75;7.90;;;24.50;54.60;;;;;;5007782;28;20217;-70
2023/05/18 13:12:48;;;;;;;7.97;6.97;;;23.70;53.50;;;;;;5013065;28;20305;-71
2023/05/18 13:15:22;;;;;;;7.97;6.93;;;23.80;52.90;;;;;;5013018;28;20183;-70
2023/05/18 13:17:51;;;;;;;10.77;9.88;;;24.80;52.40;;;;;;5012196;28;20274;-71
2023/05/18 13:20:17;;;;;;;9.25;8.35;;;26.10;50.60;;;;;;5010923;28;20210;-71
2023/05/18 13:22:43;;;;;;;8.57;7.82;;;26.60;49.30;;;;;;5012783;28;20191;-71
2023/05/18 13:25:09;;;;;;;11.48;9.32;;;26.50;49.60;;;;;;4995292;28;20191;-70
2023/05/18 13:27:35;;;;;;;10.35;9.55;;;26.10;48.70;;;;;;5012434;28;20191;-70
2023/05/18 13:30:01;;;;;;;9.98;9.20;;;25.10;50.30;;;;;;4996714;23;20233;-71
2023/05/18 13:32:27;;;;;;;10.65;9.80;;;26.00;50.00;;;;;;4973888;28;20189;-71
2023/05/18 13:34:52;;;;;;;9.77;8.50;;;24.70;51.10;;;;;;4973681;28;20177;-71
2023/05/18 13:37:18;;;;;;;11.93;10.75;;;24.20;52.40;;;;;;4973303;28;20189;-71
2023/05/18 13:39:44;;;;;;;10.07;9.10;;;24.60;51.80;;;;;;4970165;28;20741;-71
2023/05/18 13:42:10;;;;;;;8.07;7.47;;;23.50;51.70;;;;;;4953901;29;20654;-71
2023/05/18 13:44:37;;;;;;;11.05;8.38;;;23.80;52.60;;;;;;4954323;29;20644;-71
2023/05/18 13:47:03;;;;;;;10.70;8.75;;;24.30;51.40;;;;;;4954541;29;20178;-71
2023/05/18 13:49:29;;;;;;;11.20;10.32;;;24.90;51.40;;;;;;4938675;28;20186;-71
2023/05/18 13:51:54;;;;;;;11.02;10.13;;;25.70;50.60;;;;;;4955382;29;20714;-71
2023/05/18 13:54:20;;;;;;;12.07;9.68;;;24.50;50.40;;;;;;4956436;29;20190;-72
2023/05/18 13:56:47;;;;;;;6.78;6.18;;;22.90;52.20;;;;;;4956826;29;20182;-72
2023/05/18 13:59:15;;;;;;;4.95;4.15;;;21.80;54.90;;;;;;4936758;29;20681;-71
2023/05/18 14:01:41;;;;;;;4.75;4.35;;;21.50;55.90;;;;;;4953801;28;20569;-71
2023/05/18 14:04:06;;;;;;;5.93;5.43;;;22.30;54.90;;;;;;4953644;29;20194;-71
2023/05/18 14:06:32;;;;;;;6.15;4.88;;;23.30;52.60;;;;;;4936791;29;20186;-72
2023/05/18 14:08:58;;;;;;;7.95;7.38;;;24.80;51.60;;;;;;4953438;29;20185;-71
2023/05/18 14:11:24;;;;;;;7.53;6.93;;;24.70;51.10;;;;;;4953656;28;20724;-71
2023/05/18 14:13:49;;;;;;;11.10;8.93;;;23.00;52.30;;;;;;4953354;29;20616;-71
2023/05/18 14:16:15;;;;;;;8.13;6.75;;;22.80;53.90;;;;;;4953758;29;20740;-71
2023/05/18 14:18:41;;;;;;;7.75;6.55;;;23.70;53.60;;;;;;4953395;29;20200;-71
2023/05/18 14:21:07;;;;;;;12.95;7.75;;;23.80;51.50;;;;;;4936522;29;20202;-71
2023/05/18 14:23:32;;;;;;;7.85;5.05;;;23.30;53.00;;;;;;4953409;29;20189;-72
2023/05/18 14:25:58;;;;;;;6.85;6.35;;;24.10;52.50;;;;;;4936629;29;20652;-71
2023/05/18 14:28:24;;;;;;;8.63;7.90;;;23.90;50.70;;;;;;4934612;29;20188;-71
2023/05/18 14:30:50;;;;;;;6.47;5.53;;;22.20;52.60;;;;;;4953076;28;20235;-71
2023/05/18 14:33:15;;;;;;;5.85;5.22;;;21.40;55.80;;;;;;4953533;29;20229;-71
2023/05/18 14:35:41;;;;;;;9.82;4.85;;;20.90;57.40;;;;;;4953471;29;20224;-71
2023/05/18 14:38:07;;;;;;;9.05;4.75;;;21.00;57.50;;;;;;4953231;29;20182;-72
2023/05/18 14:40:33;;;;;;;5.78;4.68;;;22.40;55.90;;;;;;4953146;28;20280;-72
2023/05/18 14:42:58;;;;;;;7.63;5.60;;;22.80;53.70;;;;;;4953367;29;20273;-71
2023/05/18 14:45:24;;;;;;;5.55;4.28;;;21.90;53.80;;;;;;4936320;29;20854;-71
2023/05/18 14:47:50;;;;;;;8.00;5.07;;;22.00;54.60;;;;;;4952984;29;20190;-71
2023/05/18 14:50:15;;;;;;;21.63;7.03;;;23.10;53.70;;;;;;4936064;29;20217;-71
2023/05/18 14:52:41;;;;;;;6.00;4.85;;;22.90;53.70;;;;;;4952999;29;20566;-71
2023/05/18 14:55:07;;;;;;;7.63;5.40;;;21.80;55.70;;;;;;4953226;29;20186;-71
2023/05/18 14:57:33;;;;;;;7.43;4.90;;;21.10;55.80;;;;;;4952942;29;20185;-71
2023/05/18 14:59:59;;;;;;;3.97;3.78;;;20.40;57.90;;;;;;4953069;28;20206;-72
2023/05/18 15:02:25;;;;;;;8.25;4.38;;;20.10;57.70;;;;;;4935832;29;20276;-71
2023/05/18 15:04:50;;;;;;;5.97;4.22;;;19.90;58.10;;;;;;4936276;29;20223;-71
2023/05/18 15:07:17;;;;;;;5.07;4.57;;;19.70;58.40;;;;;;4934768;29;20200;-71
2023/05/18 15:09:43;;;;;;;5.78;4.18;;;20.10;59.20;;;;;;4952947;28;20253;-71
2023/05/18 15:12:08;;;;;;;5.13;4.57;;;20.00;58.80;;;;;;4952564;29;20182;-71
2023/05/18 15:14:34;;;;;;;7.03;4.47;;;19.90;59.30;;;;;;4953114;29;20185;-71
2023/05/18 15:17:00;;;;;;;6.78;5.07;;;19.70;59.50;;;;;;4952810;29;20204;-71
2023/05/18 15:19:26;;;;;;;5.88;5.28;;;19.60;59.90;;;;;;4952918;28;20213;-72
2023/05/18 15:21:51;;;;;;;7.22;5.28;;;19.60;60.70;;;;;;4952804;29;20382;-71
2023/05/18 15:24:17;;;;;;;8.15;4.63;;;19.60;61.90;;;;;;4952878;29;20713;-71
2023/05/18 15:26:43;;;;;;;4.97;4.53;;;19.60;61.40;;;;;;4953028;29;20239;-72
2023/05/18 15:29:09;;;;;;;7.22;3.97;;;19.60;61.00;;;;;;4952647;29;20193;-71
2023/05/18 15:31:38;;;;;;;6.63;4.93;;;19.30;61.10;;;;;;4952423;28;20217;-71
2023/05/18 15:34:04;;;;;;;8.17;5.27;;;19.00;61.10;;;;;;4952764;29;20297;-71
2023/05/18 15:36:31;;;;;;;7.60;6.03;;;18.80;62.20;;;;;;4952962;29;20232;-73
2023/05/18 15:38:57;;;;;;;8.53;5.90;;;18.70;62.40;;;;;;4952784;28;20268;-72
2023/05/18 15:41:25;;;;;;;8.33;5.63;;;18.90;62.30;;;;;;4956204;28;20297;-72
2023/05/18 15:43:51;;;;;;;9.10;8.40;;;18.80;62.50;;;;;;4958099;29;20261;-72
2023/05/18 15:46:16;;;;;;;10.83;9.87;;;18.70;63.10;;;;;;4956547;29;20189;-71